sensor_id;sensor_type;location;lat;lon;timestamp;pressure;altitude;pressure_sealevel;temperature;humidity
59558;BME280;45379;51.486;5.434;2022-07-04T00:00:18;102114.31;;;15.93;73.51
59558;BME280;45379;51.486;5.434;2022-07-04T00:02:45;102107.47;;;15.89;73.03
59558;BME280;45379;51.486;5.434;2022-07-04T00:05:12;102110.28;;;15.86;73.76
59558;BME280;45379;51.486;5.434;2022-07-04T00:07:40;102106.88;;;15.84;74.10
59558;BME280;45379;51.486;5.434;2022-07-04T00:10:08;102102.59;;;15.82;73.88
59558;BME280;45379;51.486;5.434;2022-07-04T00:12:34;102101.91;;;15.78;74.09
59558;BME280;45379;51.486;5.434;2022-07-04T00:15:01;102102.09;;;15.75;74.46
59558;BME280;45379;51.486;5.434;2022-07-04T00:17:27;102097.13;;;15.69;74.67
59558;BME280;45379;51.486;5.434;2022-07-04T00:19:53;102093.63;;;15.69;74.72
59558;BME280;45379;51.486;5.434;2022-07-04T00:22:19;102082.31;;;15.65;74.35
59558;BME280;45379;51.486;5.434;2022-07-04T00:24:45;102087.63;;;15.65;74.90
59558;BME280;45379;51.486;5.434;2022-07-04T00:27:10;102092.25;;;15.61;75.02
59558;BME280;45379;51.486;5.434;2022-07-04T00:29:36;102093.25;;;15.59;75.17
59558;BME280;45379;51.486;5.434;2022-07-04T00:32:02;102089.94;;;15.55;75.29
59558;BME280;45379;51.486;5.434;2022-07-04T00:34:28;102094.53;;;15.52;75.41
59558;BME280;45379;51.486;5.434;2022-07-04T00:36:54;102092.81;;;15.51;75.61
59558;BME280;45379;51.486;5.434;2022-07-04T00:39:20;102092.22;;;15.46;75.97
59558;BME280;45379;51.486;5.434;2022-07-04T00:41:46;102089.56;;;15.46;75.80
59558;BME280;45379;51.486;5.434;2022-07-04T00:44:13;102096.66;;;15.45;76.02
59558;BME280;45379;51.486;5.434;2022-07-04T00:46:41;102097.69;;;15.43;76.29
59558;BME280;45379;51.486;5.434;2022-07-04T00:49:07;102089.94;;;15.40;76.62
59558;BME280;45379;51.486;5.434;2022-07-04T00:51:34;102090.06;;;15.36;76.92
59558;BME280;45379;51.486;5.434;2022-07-04T00:54:02;102091.97;;;15.34;76.71
59558;BME280;45379;51.486;5.434;2022-07-04T00:56:28;102094.75;;;15.31;76.84
59558;BME280;45379;51.486;5.434;2022-07-04T00:58:55;102083.50;;;15.28;77.61
59558;BME280;45379;51.486;5.434;2022-07-04T01:01:21;102079.38;;;15.22;77.76
59558;BME280;45379;51.486;5.434;2022-07-04T01:03:47;102092.53;;;15.24;77.40
59558;BME280;45379;51.486;5.434;2022-07-04T01:06:15;102090.91;;;15.21;77.77
59558;BME280;45379;51.486;5.434;2022-07-04T01:08:44;102086.66;;;15.19;78.13
59558;BME280;45379;51.486;5.434;2022-07-04T01:11:11;102084.06;;;15.17;78.07
59558;BME280;45379;51.486;5.434;2022-07-04T01:13:37;102083.28;;;15.15;78.05
59558;BME280;45379;51.486;5.434;2022-07-04T01:16:04;102084.38;;;15.11;78.71
59558;BME280;45379;51.486;5.434;2022-07-04T01:18:31;102082.75;;;15.08;78.62
59558;BME280;45379;51.486;5.434;2022-07-04T01:20:57;102078.31;;;15.09;77.82
59558;BME280;45379;51.486;5.434;2022-07-04T01:23:22;102073.34;;;15.03;78.64
59558;BME280;45379;51.486;5.434;2022-07-04T01:25:48;102070.78;;;15.01;78.67
59558;BME280;45379;51.486;5.434;2022-07-04T01:28:18;102070.00;;;14.99;79.33
59558;BME280;45379;51.486;5.434;2022-07-04T01:30:44;102070.09;;;14.98;78.68
59558;BME280;45379;51.486;5.434;2022-07-04T01:33:11;102057.88;;;14.95;78.75
59558;BME280;45379;51.486;5.434;2022-07-04T01:35:36;102060.50;;;14.95;79.07
59558;BME280;45379;51.486;5.434;2022-07-04T01:38:03;102058.91;;;14.93;78.53
59558;BME280;45379;51.486;5.434;2022-07-04T01:40:28;102058.97;;;14.91;78.52
59558;BME280;45379;51.486;5.434;2022-07-04T01:42:54;102053.81;;;14.88;78.88
59558;BME280;45379;51.486;5.434;2022-07-04T01:45:20;102052.22;;;14.86;79.27
59558;BME280;45379;51.486;5.434;2022-07-04T01:47:46;102048.84;;;14.82;79.12
59558;BME280;45379;51.486;5.434;2022-07-04T01:50:12;102053.28;;;14.81;79.18
59558;BME280;45379;51.486;5.434;2022-07-04T01:52:39;102042.88;;;14.78;79.40
59558;BME280;45379;51.486;5.434;2022-07-04T01:55:07;102040.34;;;14.75;79.11
59558;BME280;45379;51.486;5.434;2022-07-04T01:57:33;102046.59;;;14.74;79.26
59558;BME280;45379;51.486;5.434;2022-07-04T01:59:59;102038.81;;;14.71;79.19
59558;BME280;45379;51.486;5.434;2022-07-04T02:02:43;102041.59;;;14.68;79.68
59558;BME280;45379;51.486;5.434;2022-07-04T02:05:09;102037.34;;;14.66;79.26
59558;BME280;45379;51.486;5.434;2022-07-04T02:07:35;102042.81;;;14.63;80.05
59558;BME280;45379;51.486;5.434;2022-07-04T02:10:02;102041.25;;;14.59;80.01
59558;BME280;45379;51.486;5.434;2022-07-04T02:12:28;102043.03;;;14.58;80.51
59558;BME280;45379;51.486;5.434;2022-07-04T02:15:12;102044.97;;;14.54;80.58
59558;BME280;45379;51.486;5.434;2022-07-04T02:17:38;102040.53;;;14.55;79.97
59558;BME280;45379;51.486;5.434;2022-07-04T02:20:04;102040.69;;;14.52;80.45
59558;BME280;45379;51.486;5.434;2022-07-04T02:22:32;102041.56;;;14.52;80.07
59558;BME280;45379;51.486;5.434;2022-07-04T02:24:57;102033.78;;;14.49;80.20
59558;BME280;45379;51.486;5.434;2022-07-04T02:27:23;102040.88;;;14.49;80.28
59558;BME280;45379;51.486;5.434;2022-07-04T02:29:49;102038.28;;;14.47;80.38
59558;BME280;45379;51.486;5.434;2022-07-04T02:32:15;102041.88;;;14.46;80.46
59558;BME280;45379;51.486;5.434;2022-07-04T02:34:41;102040.16;;;14.45;80.41
59558;BME280;45379;51.486;5.434;2022-07-04T02:37:07;102050.91;;;14.42;80.61
59558;BME280;45379;51.486;5.434;2022-07-04T02:39:33;102051.81;;;14.41;80.27
59558;BME280;45379;51.486;5.434;2022-07-04T02:41:58;102059.84;;;14.40;80.86
59558;BME280;45379;51.486;5.434;2022-07-04T02:44:24;102056.50;;;14.36;81.02
59558;BME280;45379;51.486;5.434;2022-07-04T02:46:50;102058.44;;;14.33;81.45
59558;BME280;45379;51.486;5.434;2022-07-04T02:49:16;102058.44;;;14.33;81.44
59558;BME280;45379;51.486;5.434;2022-07-04T02:51:42;102051.44;;;14.32;81.50
59558;BME280;45379;51.486;5.434;2022-07-04T02:54:08;102054.25;;;14.28;81.80
59558;BME280;45379;51.486;5.434;2022-07-04T02:56:34;102057.13;;;14.24;81.82
59558;BME280;45379;51.486;5.434;2022-07-04T02:59:00;102057.88;;;14.26;81.75
59558;BME280;45379;51.486;5.434;2022-07-04T03:01:26;102061.69;;;14.20;82.35
59558;BME280;45379;51.486;5.434;2022-07-04T03:03:52;102062.63;;;14.19;82.32
59558;BME280;45379;51.486;5.434;2022-07-04T03:06:18;102062.72;;;14.18;82.78
59558;BME280;45379;51.486;5.434;2022-07-04T03:08:44;102072.44;;;14.17;82.67
59558;BME280;45379;51.486;5.434;2022-07-04T03:11:10;102062.88;;;14.15;82.44
59558;BME280;45379;51.486;5.434;2022-07-04T03:13:37;102074.34;;;14.14;82.52
59558;BME280;45379;51.486;5.434;2022-07-04T03:16:04;102081.50;;;14.12;82.83
59558;BME280;45379;51.486;5.434;2022-07-04T03:18:30;102078.97;;;14.10;82.98
59558;BME280;45379;51.486;5.434;2022-07-04T03:20:56;102078.19;;;14.08;82.79
59558;BME280;45379;51.486;5.434;2022-07-04T03:23:22;102078.19;;;14.08;81.95
59558;BME280;45379;51.486;5.434;2022-07-04T03:25:47;102072.91;;;14.08;82.60
59558;BME280;45379;51.486;5.434;2022-07-04T03:28:13;102082.63;;;14.08;82.96
59558;BME280;45379;51.486;5.434;2022-07-04T03:30:39;102092.38;;;14.06;83.26
59558;BME280;45379;51.486;5.434;2022-07-04T03:33:05;102090.94;;;14.00;83.62
59558;BME280;45379;51.486;5.434;2022-07-04T03:35:31;102103.22;;;14.01;83.78
59558;BME280;45379;51.486;5.434;2022-07-04T03:37:56;102095.31;;;13.99;83.92
59558;BME280;45379;51.486;5.434;2022-07-04T03:40:22;102098.91;;;13.98;83.93
59558;BME280;45379;51.486;5.434;2022-07-04T03:42:49;102106.91;;;13.97;83.59
59558;BME280;45379;51.486;5.434;2022-07-04T03:45:14;102112.28;;;13.95;83.88
59558;BME280;45379;51.486;5.434;2022-07-04T03:47:40;102108.78;;;13.95;84.04
59558;BME280;45379;51.486;5.434;2022-07-04T03:50:07;102112.41;;;13.92;84.42
59558;BME280;45379;51.486;5.434;2022-07-04T03:52:33;102112.66;;;13.88;85.58
59558;BME280;45379;51.486;5.434;2022-07-04T03:54:59;102109.78;;;13.92;84.99
59558;BME280;45379;51.486;5.434;2022-07-04T03:57:25;102112.50;;;13.91;85.44
59558;BME280;45379;51.486;5.434;2022-07-04T03:59:50;102109.78;;;13.92;85.42
59558;BME280;45379;51.486;5.434;2022-07-04T04:02:16;102114.94;;;13.95;84.95
59558;BME280;45379;51.486;5.434;2022-07-04T04:04:42;102116.63;;;13.96;84.54
59558;BME280;45379;51.486;5.434;2022-07-04T04:07:27;102120.91;;;13.99;84.57
59558;BME280;45379;51.486;5.434;2022-07-04T04:09:53;102129.66;;;14.01;84.68
59558;BME280;45379;51.486;5.434;2022-07-04T04:12:18;102130.41;;;14.03;84.18
59558;BME280;45379;51.486;5.434;2022-07-04T04:14:44;102124.13;;;14.06;85.05
59558;BME280;45379;51.486;5.434;2022-07-04T04:17:10;102127.63;;;14.06;85.58
59558;BME280;45379;51.486;5.434;2022-07-04T04:19:36;102124.06;;;14.07;87.71
59558;BME280;45379;51.486;5.434;2022-07-04T04:22:02;102129.19;;;14.10;88.08
59558;BME280;45379;51.486;5.434;2022-07-04T04:24:27;102129.28;;;14.09;89.26
59558;BME280;45379;51.486;5.434;2022-07-04T04:26:53;102133.56;;;14.11;89.18
59558;BME280;45379;51.486;5.434;2022-07-04T04:29:19;102147.41;;;14.16;88.90
59558;BME280;45379;51.486;5.434;2022-07-04T04:31:45;102140.41;;;14.15;89.47
59558;BME280;45379;51.486;5.434;2022-07-04T04:34:10;102148.91;;;14.22;89.39
59558;BME280;45379;51.486;5.434;2022-07-04T04:36:36;102145.09;;;14.27;89.73
59558;BME280;45379;51.486;5.434;2022-07-04T04:39:02;102148.44;;;14.31;90.17
59558;BME280;45379;51.486;5.434;2022-07-04T04:41:28;102151.66;;;14.38;90.04
59558;BME280;45379;51.486;5.434;2022-07-04T04:43:54;102145.13;;;14.45;90.18
59558;BME280;45379;51.486;5.434;2022-07-04T04:46:20;102144.91;;;14.49;89.81
59558;BME280;45379;51.486;5.434;2022-07-04T04:48:46;102144.66;;;14.54;90.20
59558;BME280;45379;51.486;5.434;2022-07-04T04:51:12;102137.53;;;14.56;90.42
59558;BME280;45379;51.486;5.434;2022-07-04T04:53:37;102137.19;;;14.62;90.52
59558;BME280;45379;51.486;5.434;2022-07-04T04:56:04;102134.19;;;14.70;89.77
59558;BME280;45379;51.486;5.434;2022-07-04T04:58:29;102128.53;;;14.77;89.73
59558;BME280;45379;51.486;5.434;2022-07-04T05:00:55;102131.78;;;14.82;90.03
59558;BME280;45379;51.486;5.434;2022-07-04T05:03:21;102136.63;;;14.92;89.93
59558;BME280;45379;51.486;5.434;2022-07-04T05:05:47;102131.91;;;14.97;89.74
59558;BME280;45379;51.486;5.434;2022-07-04T05:08:13;102122.47;;;15.08;89.40
59558;BME280;45379;51.486;5.434;2022-07-04T05:10:42;102130.88;;;15.17;89.89
59558;BME280;45379;51.486;5.434;2022-07-04T05:13:07;102120.72;;;15.25;88.49
59558;BME280;45379;51.486;5.434;2022-07-04T05:15:33;102126.41;;;15.34;88.23
59558;BME280;45379;51.486;5.434;2022-07-04T05:17:59;102129.50;;;15.43;88.04
59558;BME280;45379;51.486;5.434;2022-07-04T05:20:25;102121.22;;;15.49;88.02
59558;BME280;45379;51.486;5.434;2022-07-04T05:22:51;102120.69;;;15.58;87.52
59558;BME280;45379;51.486;5.434;2022-07-04T05:25:16;102124.63;;;15.66;87.18
59558;BME280;45379;51.486;5.434;2022-07-04T05:27:42;102121.50;;;15.76;86.83
59558;BME280;45379;51.486;5.434;2022-07-04T05:30:09;102124.56;;;15.84;86.94
59558;BME280;45379;51.486;5.434;2022-07-04T05:32:38;102125.09;;;15.90;87.90
59558;BME280;45379;51.486;5.434;2022-07-04T05:35:08;102126.28;;;16.01;87.22
59558;BME280;45379;51.486;5.434;2022-07-04T05:37:34;102126.81;;;16.07;86.53
59558;BME280;45379;51.486;5.434;2022-07-04T05:40:04;102131.59;;;16.16;87.39
59558;BME280;45379;51.486;5.434;2022-07-04T05:42:30;102132.13;;;16.23;85.86
59558;BME280;45379;51.486;5.434;2022-07-04T05:44:56;102134.31;;;16.31;85.64
59558;BME280;45379;51.486;5.434;2022-07-04T05:47:21;102132.19;;;16.37;85.60
59558;BME280;45379;51.486;5.434;2022-07-04T05:49:51;102138.75;;;16.46;85.63
59558;BME280;45379;51.486;5.434;2022-07-04T05:52:17;102134.09;;;16.50;85.53
59558;BME280;45379;51.486;5.434;2022-07-04T05:54:43;102139.84;;;16.58;84.94
59558;BME280;45379;51.486;5.434;2022-07-04T05:57:08;102130.47;;;16.66;85.28
59558;BME280;45379;51.486;5.434;2022-07-04T05:59:34;102140.44;;;16.77;85.27
59558;BME280;45379;51.486;5.434;2022-07-04T06:02:00;102137.41;;;16.83;84.36
59558;BME280;45379;51.486;5.434;2022-07-04T06:04:26;102141.16;;;16.95;84.48
59558;BME280;45379;51.486;5.434;2022-07-04T06:06:52;102146.78;;;17.05;84.90
59558;BME280;45379;51.486;5.434;2022-07-04T06:09:18;102142.03;;;17.10;86.18
59558;BME280;45379;51.486;5.434;2022-07-04T06:11:44;102139.97;;;17.15;83.80
59558;BME280;45379;51.486;5.434;2022-07-04T06:14:09;102136.47;;;17.28;83.93
59558;BME280;45379;51.486;5.434;2022-07-04T06:16:35;102137.50;;;17.40;83.47
59558;BME280;45379;51.486;5.434;2022-07-04T06:19:01;102133.31;;;17.50;83.17
59558;BME280;45379;51.486;5.434;2022-07-04T06:21:27;102132.63;;;17.61;82.85
59558;BME280;45379;51.486;5.434;2022-07-04T06:23:53;102138.03;;;17.74;82.89
59558;BME280;45379;51.486;5.434;2022-07-04T06:26:19;102141.25;;;17.79;83.28
59558;BME280;45379;51.486;5.434;2022-07-04T06:28:45;102144.84;;;17.92;81.95
59558;BME280;45379;51.486;5.434;2022-07-04T06:31:11;102139.31;;;18.09;82.37
59558;BME280;45379;51.486;5.434;2022-07-04T06:33:37;102150.50;;;18.15;81.74
59558;BME280;45379;51.486;5.434;2022-07-04T06:36:23;102144.09;;;18.04;81.91
59558;BME280;45379;51.486;5.434;2022-07-04T06:38:49;102138.28;;;17.98;81.84
59558;BME280;45379;51.486;5.434;2022-07-04T06:41:15;102140.16;;;17.96;81.76
59558;BME280;45379;51.486;5.434;2022-07-04T06:43:41;102141.88;;;18.11;82.03
59558;BME280;45379;51.486;5.434;2022-07-04T06:46:07;102139.06;;;18.27;81.37
59558;BME280;45379;51.486;5.434;2022-07-04T06:48:32;102141.78;;;18.40;80.85
59558;BME280;45379;51.486;5.434;2022-07-04T06:50:58;102135.44;;;18.55;81.16
59558;BME280;45379;51.486;5.434;2022-07-04T06:53:24;102134.69;;;18.65;80.03
59558;BME280;45379;51.486;5.434;2022-07-04T06:55:50;102144.50;;;18.78;79.17
59558;BME280;45379;51.486;5.434;2022-07-04T06:58:16;102145.19;;;18.94;78.40
59558;BME280;45379;51.486;5.434;2022-07-04T07:00:42;102143.00;;;19.01;78.34
59558;BME280;45379;51.486;5.434;2022-07-04T07:03:08;102137.75;;;19.12;78.09
59558;BME280;45379;51.486;5.434;2022-07-04T07:05:34;102133.06;;;19.15;77.85
59558;BME280;45379;51.486;5.434;2022-07-04T07:08:03;102132.53;;;19.10;78.39
59558;BME280;45379;51.486;5.434;2022-07-04T07:10:30;102130.06;;;19.07;77.62
59558;BME280;45379;51.486;5.434;2022-07-04T07:12:58;102123.69;;;19.10;77.77
59558;BME280;45379;51.486;5.434;2022-07-04T07:15:24;102125.94;;;19.29;77.37
59558;BME280;45379;51.486;5.434;2022-07-04T07:17:50;102116.53;;;19.36;77.05
59558;BME280;45379;51.486;5.434;2022-07-04T07:20:16;102123.75;;;19.34;76.50
59558;BME280;45379;51.486;5.434;2022-07-04T07:22:42;102115.63;;;19.48;75.99
59558;BME280;45379;51.486;5.434;2022-07-04T07:25:10;102112.81;;;19.62;74.62
59558;BME280;45379;51.486;5.434;2022-07-04T07:27:36;102117.81;;;19.80;74.79
59558;BME280;45379;51.486;5.434;2022-07-04T07:30:04;102114.69;;;19.86;72.58
59558;BME280;45379;51.486;5.434;2022-07-04T07:32:30;102114.13;;;20.06;72.17
59558;BME280;45379;51.486;5.434;2022-07-04T07:34:56;102117.75;;;20.29;71.84
59558;BME280;45379;51.486;5.434;2022-07-04T07:37:22;102118.72;;;20.28;71.34
59558;BME280;45379;51.486;5.434;2022-07-04T07:39:49;102126.53;;;20.42;69.83
59558;BME280;45379;51.486;5.434;2022-07-04T07:42:16;102135.44;;;20.54;69.36
59558;BME280;45379;51.486;5.434;2022-07-04T07:44:43;102129.16;;;20.66;68.62
59558;BME280;45379;51.486;5.434;2022-07-04T07:47:13;102127.00;;;20.71;68.61
59558;BME280;45379;51.486;5.434;2022-07-04T07:49:39;102123.16;;;20.51;68.67
59558;BME280;45379;51.486;5.434;2022-07-04T07:52:06;102119.50;;;20.52;68.64
59558;BME280;45379;51.486;5.434;2022-07-04T07:54:32;102119.09;;;20.70;68.33
59558;BME280;45379;51.486;5.434;2022-07-04T07:56:57;102118.19;;;20.82;67.93
59558;BME280;45379;51.486;5.434;2022-07-04T07:59:23;102122.34;;;20.97;67.78
59558;BME280;45379;51.486;5.434;2022-07-04T08:01:49;102111.66;;;21.08;67.36
59558;BME280;45379;51.486;5.434;2022-07-04T08:04:14;102099.13;;;21.20;66.79
59558;BME280;45379;51.486;5.434;2022-07-04T08:06:59;102104.72;;;21.28;66.25
59558;BME280;45379;51.486;5.434;2022-07-04T08:09:24;102098.66;;;21.37;66.52
59558;BME280;45379;51.486;5.434;2022-07-04T08:11:50;102098.03;;;21.45;66.08
59558;BME280;45379;51.486;5.434;2022-07-04T08:14:16;102097.03;;;21.57;65.85
59558;BME280;45379;51.486;5.434;2022-07-04T08:16:42;102106.56;;;21.61;65.32
59558;BME280;45379;51.486;5.434;2022-07-04T08:19:08;102103.25;;;21.69;65.65
59558;BME280;45379;51.486;5.434;2022-07-04T08:21:33;102102.75;;;21.86;65.59
59558;BME280;45379;51.486;5.434;2022-07-04T08:23:59;102103.56;;;21.98;65.30
59558;BME280;45379;51.486;5.434;2022-07-04T08:26:25;102107.31;;;22.07;65.17
59558;BME280;45379;51.486;5.434;2022-07-04T08:28:52;102112.75;;;22.16;64.42
59558;BME280;45379;51.486;5.434;2022-07-04T08:31:19;102114.66;;;22.26;65.25
59558;BME280;45379;51.486;5.434;2022-07-04T08:33:45;102123.41;;;22.39;64.38
59558;BME280;45379;51.486;5.434;2022-07-04T08:36:12;102116.41;;;22.47;63.82
59558;BME280;45379;51.486;5.434;2022-07-04T08:38:38;102117.88;;;22.52;63.10
59558;BME280;45379;51.486;5.434;2022-07-04T08:41:04;102113.97;;;22.56;62.86
59558;BME280;45379;51.486;5.434;2022-07-04T08:43:31;102110.88;;;22.60;62.75
59558;BME280;45379;51.486;5.434;2022-07-04T08:46:00;102112.56;;;22.61;62.88
59558;BME280;45379;51.486;5.434;2022-07-04T08:48:28;102118.72;;;22.73;63.06
59558;BME280;45379;51.486;5.434;2022-07-04T08:51:04;102124.03;;;22.84;62.63
59558;BME280;45379;51.486;5.434;2022-07-04T08:53:33;102123.22;;;22.93;61.59
59558;BME280;45379;51.486;5.434;2022-07-04T08:56:03;102117.22;;;23.11;62.71
59558;BME280;45379;51.486;5.434;2022-07-04T08:58:48;102115.81;;;23.27;62.23
59558;BME280;45379;51.486;5.434;2022-07-04T09:01:15;102120.88;;;23.31;62.67
59558;BME280;45379;51.486;5.434;2022-07-04T09:03:44;102120.25;;;23.48;62.19
59558;BME280;45379;51.486;5.434;2022-07-04T09:06:12;102122.50;;;23.43;62.00
59558;BME280;45379;51.486;5.434;2022-07-04T09:08:41;102117.66;;;23.37;61.30
59558;BME280;45379;51.486;5.434;2022-07-04T09:11:07;102117.56;;;23.48;60.00
59558;BME280;45379;51.486;5.434;2022-07-04T09:13:34;102126.38;;;23.60;62.13
59558;BME280;45379;51.486;5.434;2022-07-04T09:16:01;102114.38;;;23.73;61.88
59558;BME280;45379;51.486;5.434;2022-07-04T09:18:33;102122.19;;;23.86;60.83
59558;BME280;45379;51.486;5.434;2022-07-04T09:21:08;102117.94;;;23.83;59.93
59558;BME280;45379;51.486;5.434;2022-07-04T09:23:42;102109.81;;;23.54;59.33
59558;BME280;45379;51.486;5.434;2022-07-04T09:26:19;102108.28;;;23.62;60.32
59558;BME280;45379;51.486;5.434;2022-07-04T09:28:52;102105.06;;;23.68;58.80
59558;BME280;45379;51.486;5.434;2022-07-04T09:31:30;102112.97;;;23.79;60.34
59558;BME280;45379;51.486;5.434;2022-07-04T09:34:02;102108.94;;;23.94;59.74
59558;BME280;45379;51.486;5.434;2022-07-04T09:36:33;102113.47;;;24.13;59.51
59558;BME280;45379;51.486;5.434;2022-07-04T09:39:15;102110.09;;;24.21;58.53
59558;BME280;45379;51.486;5.434;2022-07-04T09:41:58;102111.78;;;24.22;56.69
59558;BME280;45379;51.486;5.434;2022-07-04T09:44:27;102107.97;;;24.34;58.90
59558;BME280;45379;51.486;5.434;2022-07-04T09:46:55;102111.22;;;24.47;58.18
59558;BME280;45379;51.486;5.434;2022-07-04T09:49:22;102104.28;;;24.54;57.95
59558;BME280;45379;51.486;5.434;2022-07-04T09:51:51;102101.31;;;24.48;58.22
59558;BME280;45379;51.486;5.434;2022-07-04T09:54:26;102100.47;;;24.67;57.20
59558;BME280;45379;51.486;5.434;2022-07-04T09:56:57;102109.50;;;24.85;57.79
59558;BME280;45379;51.486;5.434;2022-07-04T09:59:24;102102.66;;;25.00;58.71
59558;BME280;45379;51.486;5.434;2022-07-04T10:01:50;102100.78;;;25.10;58.24
59558;BME280;45379;51.486;5.434;2022-07-04T10:04:16;102114.22;;;25.20;57.94
59558;BME280;45379;51.486;5.434;2022-07-04T10:06:44;102109.22;;;25.35;56.53
59558;BME280;45379;51.486;5.434;2022-07-04T10:09:16;102095.28;;;25.39;56.17
59558;BME280;45379;51.486;5.434;2022-07-04T10:11:45;102098.69;;;25.41;56.77
59558;BME280;45379;51.486;5.434;2022-07-04T10:14:13;102097.97;;;25.39;56.76
59558;BME280;45379;51.486;5.434;2022-07-04T10:16:41;102100.72;;;25.57;56.33
59558;BME280;45379;51.486;5.434;2022-07-04T10:19:08;102094.50;;;25.75;56.33
59558;BME280;45379;51.486;5.434;2022-07-04T10:21:35;102083.22;;;25.89;56.02
59558;BME280;45379;51.486;5.434;2022-07-04T10:24:01;102081.53;;;25.88;55.71
59558;BME280;45379;51.486;5.434;2022-07-04T10:26:30;102081.28;;;25.81;55.98
59558;BME280;45379;51.486;5.434;2022-07-04T10:28:56;102078.06;;;25.95;56.07
59558;BME280;45379;51.486;5.434;2022-07-04T10:31:25;102073.16;;;26.09;54.94
59558;BME280;45379;51.486;5.434;2022-07-04T10:33:53;102076.59;;;26.01;55.48
59558;BME280;45379;51.486;5.434;2022-07-04T10:36:22;102085.06;;;25.70;56.28
59558;BME280;45379;51.486;5.434;2022-07-04T10:39:01;102080.53;;;25.89;55.01
59558;BME280;45379;51.486;5.434;2022-07-04T10:41:29;102069.34;;;26.11;55.85
59558;BME280;45379;51.486;5.434;2022-07-04T10:44:05;102075.94;;;26.17;52.08
59558;BME280;45379;51.486;5.434;2022-07-04T10:46:49;102069.41;;;26.19;52.39
59558;BME280;45379;51.486;5.434;2022-07-04T10:51:56;102056.00;;;26.27;53.02
59558;BME280;45379;51.486;5.434;2022-07-04T10:54:34;102055.59;;;26.40;52.73
59558;BME280;45379;51.486;5.434;2022-07-04T10:59:34;102059.97;;;26.41;54.51
59558;BME280;45379;51.486;5.434;2022-07-04T11:07:09;102053.69;;;26.59;54.83
59558;BME280;45379;51.486;5.434;2022-07-04T11:09:36;102050.88;;;26.68;54.16
59558;BME280;45379;51.486;5.434;2022-07-04T11:12:03;102047.47;;;26.84;52.94
59558;BME280;45379;51.486;5.434;2022-07-04T11:14:43;102045.97;;;26.90;51.06
59558;BME280;45379;51.486;5.434;2022-07-04T11:17:35;102041.47;;;26.98;49.55
59558;BME280;45379;51.486;5.434;2022-07-04T11:20:05;102041.38;;;27.16;52.21
59558;BME280;45379;51.486;5.434;2022-07-04T11:22:33;102048.97;;;27.21;48.53
59558;BME280;45379;51.486;5.434;2022-07-04T11:24:59;102052.56;;;27.29;53.84
59558;BME280;45379;51.486;5.434;2022-07-04T11:27:25;102041.91;;;27.28;53.49
59558;BME280;45379;51.486;5.434;2022-07-04T11:29:55;102045.00;;;26.99;49.52
59558;BME280;45379;51.486;5.434;2022-07-04T11:32:30;102045.66;;;26.67;51.53
59558;BME280;45379;51.486;5.434;2022-07-04T11:34:56;102044.38;;;26.79;54.78
59558;BME280;45379;51.486;5.434;2022-07-04T11:37:22;102033.56;;;27.05;54.32
59558;BME280;45379;51.486;5.434;2022-07-04T11:39:52;102036.81;;;27.17;51.96
59558;BME280;45379;51.486;5.434;2022-07-04T11:42:19;102031.28;;;27.26;53.24
59558;BME280;45379;51.486;5.434;2022-07-04T11:45:04;102030.34;;;27.36;53.12
59558;BME280;45379;51.486;5.434;2022-07-04T11:47:52;102020.84;;;27.31;48.12
59558;BME280;45379;51.486;5.434;2022-07-04T11:50:18;102017.63;;;27.28;52.68
59558;BME280;45379;51.486;5.434;2022-07-04T11:52:49;102022.69;;;27.23;50.67
59558;BME280;45379;51.486;5.434;2022-07-04T11:55:20;102019.84;;;27.32;51.93
59558;BME280;45379;51.486;5.434;2022-07-04T11:57:51;102018.09;;;27.15;50.08
59558;BME280;45379;51.486;5.434;2022-07-04T12:00:28;102016.31;;;26.98;51.17
59558;BME280;45379;51.486;5.434;2022-07-04T12:03:00;102029.75;;;26.82;51.36
59558;BME280;45379;51.486;5.434;2022-07-04T12:05:26;102018.44;;;26.52;54.48
59558;BME280;45379;51.486;5.434;2022-07-04T12:07:52;102025.25;;;26.38;55.01
59558;BME280;45379;51.486;5.434;2022-07-04T12:10:23;102028.03;;;26.29;52.17
59558;BME280;45379;51.486;5.434;2022-07-04T12:13:04;102024.19;;;26.13;50.49
59558;BME280;45379;51.486;5.434;2022-07-04T12:15:44;102028.06;;;26.11;53.33
59558;BME280;45379;51.486;5.434;2022-07-04T12:18:27;102023.63;;;26.27;51.34
59558;BME280;45379;51.486;5.434;2022-07-04T12:20:55;102023.88;;;26.60;54.42
59558;BME280;45379;51.486;5.434;2022-07-04T12:23:35;102008.34;;;26.80;48.88
59558;BME280;45379;51.486;5.434;2022-07-04T12:26:01;102022.38;;;26.92;53.56
59558;BME280;45379;51.486;5.434;2022-07-04T12:28:35;102011.28;;;26.95;49.31
59558;BME280;45379;51.486;5.434;2022-07-04T12:31:02;102013.66;;;27.06;52.91
59558;BME280;45379;51.486;5.434;2022-07-04T12:33:29;102016.09;;;27.25;50.64
59558;BME280;45379;51.486;5.434;2022-07-04T12:36:03;102011.22;;;27.29;48.21
59558;BME280;45379;51.486;5.434;2022-07-04T12:41:06;102012.47;;;27.00;50.70
59558;BME280;45379;51.486;5.434;2022-07-04T12:46:10;102010.28;;;26.70;53.37
59558;BME280;45379;51.486;5.434;2022-07-04T12:48:36;102009.13;;;26.46;52.93
59558;BME280;45379;51.486;5.434;2022-07-04T12:53:50;102001.03;;;26.72;52.10
59558;BME280;45379;51.486;5.434;2022-07-04T12:56:39;102001.03;;;26.72;49.74
59558;BME280;45379;51.486;5.434;2022-07-04T12:59:11;101996.44;;;26.99;50.49
59558;BME280;45379;51.486;5.434;2022-07-04T13:01:40;101991.94;;;27.16;51.45
59558;BME280;45379;51.486;5.434;2022-07-04T13:04:07;101990.19;;;27.41;51.82
59558;BME280;45379;51.486;5.434;2022-07-04T13:06:33;101992.88;;;27.49;51.46
59558;BME280;45379;51.486;5.434;2022-07-04T13:08:59;101990.75;;;27.18;51.21
59558;BME280;45379;51.486;5.434;2022-07-04T13:11:25;101983.63;;;27.01;51.81